• Join FlightAware (Why Join?)
  • Login
  • US Flag 
11:34PM EDT


 

Airport Tracker/Info


-or-


 

Live Flight TrackerFlight Track Log ✈ PWA138 ✈ 06-Apr-2014 ✈ KPWK - KMKE

Flight Track Log - Related Links

Times and Time Zones

All times are in EDT time to prevent confusion due to time zone crossing. See the PWA138 flight status page for this flight to view local times or setup timezone preferences in your user account.

Time Position Orientation Groundspeed Altitude Reporting Facility
EDT Latitude Longitude Course Direction KTS MPH feet Rate Location/Type
11:19AM 42.1217 -87.8692 191° South 172 198 1,700  Level Chicago Center
11:20AM 42.1608 -87.8381 30° Northeast 165 190 2,600 1,080 Climbing Chicago Center
11:21AM 42.2017 -87.7978 36° Northeast 165 190 4,000 660 Climbing Chicago Center
11:22AM 42.2419 -87.7594 35° Northeast 174 200 4,000  Level Chicago Center
11:23AM 42.2642 -87.7056 61° Northeast 183 211 4,000  Level Chicago Center
11:24AM 42.2717 -87.6339 82° East 181 208 4,000  Level Chicago Center
11:25AM 41.4298 -87.8634 191° South  Level FlightAware Approximate
11:25AM 42.2797 -87.5697 80° East 179 206 4,000  Level Chicago Center
11:27AM 42.2886 -87.5072 79° East 174 200 4,000  Level Chicago Center
11:28AM 42.2697 -87.4686 123° Southeast 165 190 4,000  Level Chicago Center
11:29AM 42.2656 -87.5361 265° West 181 208 4,000  Level Chicago Center
11:30AM 42.2642 -87.6056 268° West 178 205 4,000  Level Chicago Center
11:31AM 42.2631 -87.6689 269° West 174 200 4,000  Level Chicago Center
11:32AM 42.2628 -87.7339 270° West 173 199 4,000  Level Chicago Center
11:33AM 42.2633 -87.8033 271° West 173 199 4,000  Level Chicago Center
11:34AM 42.2653 -87.8658 272° West 171 197 4,000 -660 Level Chicago Center
11:35AM 42.2642 -87.9258 269° West 165 190 2,700 -840 Descending Chicago Center
11:36AM 42.2331 -87.9556 215° Southwest 156 180 2,300 -420 Descending Chicago Center
11:37AM 42.1922 -87.9422 166° South 154 177 1,900 -420 Descending Chicago Center
11:38AM 42.1506 -87.9228 161° South 147 169 1,500 -480 Descending Chicago Center
11:39AM 42.1150 -87.9039 158° South 143 165 1,000 240 Descending Chicago Center
11:40AM 42.1147 -87.8647 91° East 170 196 2,000 480 Climbing Chicago Center
11:41AM 42.1597 -87.8267 32° Northeast 176 203 2,100 480 Climbing Chicago Center
11:42AM 42.2011 -87.7858 36° Northeast 182 209 3,100 780 Climbing Chicago Center
11:43AM 42.2539 -87.7803 North 192 221 3,800 420 Climbing Chicago Center
11:44AM 42.3083 -87.7797 360° North 182 209 4,000 60 Climbing Chicago Center
11:45AM 42.3536 -87.7825 357° North 182 209 4,000  Level Chicago Center
11:46AM 42.3794 -87.8372 303° West 178 205 4,000  Level Chicago Center
11:47AM 42.4008 -87.9047 293° West 167 192 4,000  Level Chicago Center
11:48AM 42.4011 -87.9669 270° West 169 194 4,000  Level Chicago Center
11:49AM 42.3736 -87.9931 215° Southwest 159 183 4,000  Level Chicago Center
11:50AM 42.3314 -87.9861 173° South 155 178 4,000  Level Chicago Center
11:51AM 42.3119 -87.9411 120° Southeast 176 203 4,000  Level Chicago Center
11:52AM 42.3183 -87.8700 83° East 181 208 4,000  Level Chicago Center
11:53AM 42.3250 -87.8092 82° East 177 204 4,000  Level Chicago Center
11:54AM 42.3350 -87.7344 80° East 176 203 4,000  Level Chicago Center
11:55AM 42.3431 -87.6667 81° East 181 208 4,000  Level Chicago Center
11:56AM 42.3650 -87.6247 55° Northeast 181 208 4,000  Level Chicago Center
11:57AM 42.4081 -87.6592 329° Northwest 184 212 4,000  Level Chicago Center
12:00PM 42.4000 -87.8000 266° West 166 191 4,000  Level Chicago TRACON
12:00PM 42.4064 -87.8397 282° West 168 193 4,000  Level Chicago Center
12:01PM 42.4061 -87.9131 270° West 166 191 4,000  Level Chicago Center
12:03PM 42.3875 -87.9578 241° Southwest 166 191 4,000  Level Chicago Center
12:04PM 42.3442 -87.9528 175° South 162 186 4,000  Level Chicago Center
12:05PM 42.3178 -87.9169 135° Southeast 176 203 4,000  Level Chicago Center
12:06PM 42.3239 -87.8456 83° East 192 221 4,000  Level Chicago Center
12:07PM 42.3311 -87.7811 81° East 188 216 4,000  Level Chicago Center
12:08PM 42.3406 -87.7169 79° East 182 209 4,000  Level Chicago Center
12:09PM 42.3519 -87.6403 79° East 178 205 4,000  Level Chicago Center
12:11PM 42.4167 -87.5833 33° Northeast 187 215 4,000 -120 Level Chicago TRACON
12:12PM 42.4333 -87.6500 289° West 176 203 3,700 -600 Descending Chicago TRACON
12:13PM 42.4500 -87.7000 294° West 175 201 3,000 -720 Descending Chicago TRACON
12:14PM 42.4667 -87.7500 294° West 145 167 2,300 -660 Descending Chicago TRACON
12:15PM 42.4667 -87.8167 270° West 148 170 1,600 -600 Descending Chicago TRACON
12:16PM 42.4333 -87.8500 216° Southwest 151 174 1,200  Descending Chicago TRACON
12:17PM 42.4000 -87.8667 200° South 154 177 1,600 420 Climbing Chicago TRACON
12:18PM 42.4000 -87.8000 90° East 191 220 2,100 120 Climbing Chicago TRACON
12:19PM 42.4333 -87.7833 20° North 194 223 1,900 -480 Descending Chicago TRACON
12:20PM 42.4333 -87.8333 270° West 133 153 1,100 -420 Descending Chicago TRACON
12:21PM 42.4167 -87.8667 236° Southwest 136 157 1,100 960 Level Chicago TRACON
12:22PM 42.3833 -87.8833 200° South 189 217 3,000 1,140 Climbing Chicago TRACON
12:23PM 42.3333 -87.9333 216° Southwest 214 246 3,400 480 Climbing Chicago TRACON
12:24PM 42.3000 -87.8667 124° Southeast 230 265 4,000 300 Climbing Chicago TRACON
12:25PM 42.3000 -87.8000 90° East 213 245 4,000  Level Chicago TRACON
12:26PM 42.3000 -87.7000 90° East 235 270 4,000  Level Chicago TRACON
12:27PM 42.3167 -87.6000 77° East 252 290 4,000  Level Chicago TRACON
12:28PM 42.3333 -87.5167 75° East 239 275 4,000  Level Chicago TRACON
12:29PM 42.3667 -87.5333 340° North 244 281 4,000  Level Chicago TRACON
12:30PM 42.4167 -87.6000 315° West 246 283 4,000  Level Chicago TRACON
12:31PM 42.4078 -87.6981 263° West 226 260 4,000  Level Chicago Center
12:32PM 42.4542 -87.7342 330° Northwest 240 276 4,000  Level Chicago Center
12:33PM 42.5203 -87.7372 358° North 240 276 4,000  Level Chicago Center
12:34PM 42.5978 -87.7436 357° North 237 273 4,000  Level Chicago Center
12:35PM 42.6639 -87.7481 357° North 237 273 4,000  Level Chicago Center
12:36PM 42.7294 -87.7483 360° North 237 273 4,000  Level Chicago Center
12:37PM 42.7647 -87.6725 58° Northeast 237 273 4,000  Level Chicago Center
12:38PM 42.7908 -87.6092 61° Northeast 204 235 4,000  Level Chicago Center
12:39PM 42.8219 -87.5303 62° Northeast 198 228 4,000  Level Chicago Center
12:40PM 42.8083 -87.4819 111° Southeast 189 217 4,000  Level Chicago Center
12:41PM 42.7619 -87.5125 206° Southwest 183 211 4,000  Level Chicago Center
12:42PM 42.7194 -87.5422 207° Southwest 176 203 4,000  Level Chicago Center
12:43PM 42.7147 -87.6128 265° West 190 219 4,000  Level Chicago Center
12:44PM 42.7175 -87.6817 273° West 188 216 4,000  Level Chicago Center
12:45PM 42.7825 -87.7097 342° North 208 239 4,000  Level Chicago Center
12:46PM 42.8347 -87.6950 12° North 218 251 4,100  Climbing Chicago Center
12:47PM 42.8425 -87.6167 82° East 213 245 4,000 -60 Descending Chicago Center
12:48PM 42.8525 -87.5356 80° East 213 245 4,000  Level Chicago Center
12:49PM 42.8669 -87.4597 75° East 219 252 4,000  Level Chicago Center
12:50PM 42.9028 -87.4983 322° Northwest 206 237 4,000  Level Chicago Center
12:51PM 42.9019 -87.5858 269° West 194 223 4,000  Level Chicago Center
12:53PM 42.9033 -87.6544 272° West 189 217 4,000  Level Chicago Center
12:54PM 42.9033 -87.7247 270° West 188 216 4,000  Level Chicago Center
12:55PM 42.8781 -87.7189 170° South 190 219 4,100  Climbing Chicago Center
12:56PM 42.8842 -87.6517 83° East 181 208 4,100 -60 Level Chicago Center
12:57PM 42.8922 -87.5856 81° East 180 207 4,000 -60 Descending Chicago Center
12:58PM 42.9036 -87.5072 79° East 179 206 4,000  Level Chicago Center
12:59PM 42.9111 -87.4414 81° East 177 204 4,000  Level Chicago Center
01:00PM 42.8856 -87.4700 219° Southwest 163 188 4,000  Level Chicago Center
01:01PM 42.8856 -87.5414 270° West 181 208 4,000  Level Chicago Center
01:02PM 42.8806 -87.6181 265° West 196 226 4,000  Level Chicago Center
01:03PM 42.8825 -87.7089 272° West 198 228 4,000  Level Chicago Center
01:04PM 42.8744 -87.7786 261° West 203 234 4,000  Level Chicago Center
01:05PM 42.8464 -87.7397 135° Southeast 202 232 4,000  Level Chicago Center
01:06PM 42.8547 -87.6597 82° East 207 238 4,000  Level Chicago Center
01:07PM 42.8636 -87.5850 81° East 205 236 4,000  Level Chicago Center
01:08PM 42.8722 -87.5061 82° East 205 236 4,000  Level Chicago Center
01:09PM 42.9144 -87.4550 42° Northeast 224 258 4,000  Level Chicago Center
01:10PM 42.9603 -87.4986 325° Northwest 208 239 4,000 -720 Level Chicago Center
01:11PM 42.9831 -87.5661 295° West 195 224 2,600 -780 Descending Chicago Center
01:12PM 42.9819 -87.6203 268° West 161 185 2,500 -60 Descending Chicago Center
01:13PM 42.9831 -87.6639 272° West 133 153 2,500  Level Chicago Center
01:14PM 42.9847 -87.7083 273° West 123 142 2,600  Climbing Chicago Center
01:15PM 42.9803 -87.7606 263° West 119 137 2,500 -300 Descending Chicago Center
01:16PM 42.9683 -87.8019 248° West 119 137 2,100 -360 Descending Chicago Center
01:17PM 42.9569 -87.8431 249° West 116 133 1,800 -300 Descending Chicago Center